sensor_id;sensor_type;location;lat;lon;timestamp;P1;durP1;ratioP1;P2;durP2;ratioP2
47429;SDS011;33181;49.246;7.372;2022-11-15T00:00:50;10.70;;;8.10;;
47429;SDS011;33181;49.246;7.372;2022-11-15T00:03:17;12.57;;;8.20;;
47429;SDS011;33181;49.246;7.372;2022-11-15T00:05:51;12.37;;;8.00;;
47429;SDS011;33181;49.246;7.372;2022-11-15T00:08:16;12.37;;;8.47;;
47429;SDS011;33181;49.246;7.372;2022-11-15T00:10:43;14.83;;;8.47;;
47429;SDS011;33181;49.246;7.372;2022-11-15T00:13:22;14.00;;;8.50;;
47429;SDS011;33181;49.246;7.372;2022-11-15T00:15:48;15.47;;;8.57;;
47429;SDS011;33181;49.246;7.372;2022-11-15T00:18:14;10.90;;;7.90;;
47429;SDS011;33181;49.246;7.372;2022-11-15T00:20:41;10.23;;;7.53;;
47429;SDS011;33181;49.246;7.372;2022-11-15T00:23:07;14.03;;;8.23;;
47429;SDS011;33181;49.246;7.372;2022-11-15T00:25:33;11.23;;;8.17;;
47429;SDS011;33181;49.246;7.372;2022-11-15T00:28:00;12.90;;;8.07;;
47429;SDS011;33181;49.246;7.372;2022-11-15T00:30:26;10.57;;;7.30;;
47429;SDS011;33181;49.246;7.372;2022-11-15T00:32:53;10.60;;;7.30;;
47429;SDS011;33181;49.246;7.372;2022-11-15T00:35:18;12.43;;;6.67;;
47429;SDS011;33181;49.246;7.372;2022-11-15T00:37:45;8.03;;;6.30;;
47429;SDS011;33181;49.246;7.372;2022-11-15T00:40:12;8.67;;;6.63;;
47429;SDS011;33181;49.246;7.372;2022-11-15T00:42:39;7.93;;;6.73;;
47429;SDS011;33181;49.246;7.372;2022-11-15T00:45:05;10.90;;;7.60;;
47429;SDS011;33181;49.246;7.372;2022-11-15T00:47:31;8.93;;;6.80;;
47429;SDS011;33181;49.246;7.372;2022-11-15T00:49:57;10.37;;;6.77;;
47429;SDS011;33181;49.246;7.372;2022-11-15T00:52:23;10.07;;;7.07;;
47429;SDS011;33181;49.246;7.372;2022-11-15T00:54:49;8.00;;;6.50;;
47429;SDS011;33181;49.246;7.372;2022-11-15T00:57:14;8.60;;;6.20;;
47429;SDS011;33181;49.246;7.372;2022-11-15T00:59:40;9.47;;;6.90;;
47429;SDS011;33181;49.246;7.372;2022-11-15T01:02:06;8.73;;;6.40;;
47429;SDS011;33181;49.246;7.372;2022-11-15T01:04:32;8.13;;;6.70;;
47429;SDS011;33181;49.246;7.372;2022-11-15T01:06:57;8.53;;;5.93;;
47429;SDS011;33181;49.246;7.372;2022-11-15T01:09:23;8.60;;;6.33;;
47429;SDS011;33181;49.246;7.372;2022-11-15T01:11:49;7.47;;;5.87;;
47429;SDS011;33181;49.246;7.372;2022-11-15T01:14:15;8.57;;;5.93;;
47429;SDS011;33181;49.246;7.372;2022-11-15T01:16:40;7.00;;;5.40;;
47429;SDS011;33181;49.246;7.372;2022-11-15T01:19:07;7.53;;;5.37;;
47429;SDS011;33181;49.246;7.372;2022-11-15T01:21:33;8.20;;;6.00;;
47429;SDS011;33181;49.246;7.372;2022-11-15T01:23:58;12.10;;;5.87;;
47429;SDS011;33181;49.246;7.372;2022-11-15T01:26:24;9.87;;;5.53;;
47429;SDS011;33181;49.246;7.372;2022-11-15T01:28:50;7.20;;;5.80;;
47429;SDS011;33181;49.246;7.372;2022-11-15T01:31:17;7.63;;;5.70;;
47429;SDS011;33181;49.246;7.372;2022-11-15T01:33:45;8.23;;;5.60;;
47429;SDS011;33181;49.246;7.372;2022-11-15T01:36:13;9.70;;;5.57;;
47429;SDS011;33181;49.246;7.372;2022-11-15T01:38:42;7.73;;;5.83;;
47429;SDS011;33181;49.246;7.372;2022-11-15T01:41:14;8.63;;;5.70;;
47429;SDS011;33181;49.246;7.372;2022-11-15T01:43:43;8.83;;;6.20;;
47429;SDS011;33181;49.246;7.372;2022-11-15T01:48:51;9.70;;;5.80;;
47429;SDS011;33181;49.246;7.372;2022-11-15T01:51:20;9.63;;;5.80;;
47429;SDS011;33181;49.246;7.372;2022-11-15T01:53:50;9.80;;;5.83;;
47429;SDS011;33181;49.246;7.372;2022-11-15T01:56:21;8.23;;;6.10;;
47429;SDS011;33181;49.246;7.372;2022-11-15T01:58:52;9.00;;;6.20;;
47429;SDS011;33181;49.246;7.372;2022-11-15T02:01:22;8.07;;;6.27;;
47429;SDS011;33181;49.246;7.372;2022-11-15T02:03:52;10.70;;;6.57;;
47429;SDS011;33181;49.246;7.372;2022-11-15T02:06:27;8.00;;;6.20;;
47429;SDS011;33181;49.246;7.372;2022-11-15T02:08:52;8.90;;;6.57;;
47429;SDS011;33181;49.246;7.372;2022-11-15T02:11:21;8.40;;;6.47;;
47429;SDS011;33181;49.246;7.372;2022-11-15T02:13:46;8.90;;;6.70;;
47429;SDS011;33181;49.246;7.372;2022-11-15T02:19:08;9.50;;;6.57;;
47429;SDS011;33181;49.246;7.372;2022-11-15T02:28:40;10.80;;;7.00;;
47429;SDS011;33181;49.246;7.372;2022-11-15T02:31:47;6.87;;;6.00;;
47429;SDS011;33181;49.246;7.372;2022-11-15T02:43:36;8.83;;;6.90;;
47429;SDS011;33181;49.246;7.372;2022-11-15T02:46:36;9.00;;;6.90;;
47429;SDS011;33181;49.246;7.372;2022-11-15T02:49:37;9.50;;;6.67;;
47429;SDS011;33181;49.246;7.372;2022-11-15T02:52:20;8.33;;;6.30;;
47429;SDS011;33181;49.246;7.372;2022-11-15T02:54:56;8.80;;;6.93;;
47429;SDS011;33181;49.246;7.372;2022-11-15T02:57:44;9.93;;;7.30;;
47429;SDS011;33181;49.246;7.372;2022-11-15T03:00:22;12.13;;;6.90;;
47429;SDS011;33181;49.246;7.372;2022-11-15T03:02:53;7.27;;;6.27;;
47429;SDS011;33181;49.246;7.372;2022-11-15T03:08:29;10.50;;;6.43;;
47429;SDS011;33181;49.246;7.372;2022-11-15T03:11:15;7.57;;;6.07;;
47429;SDS011;33181;49.246;7.372;2022-11-15T03:19:44;8.13;;;5.80;;
47429;SDS011;33181;49.246;7.372;2022-11-15T03:22:21;7.63;;;5.97;;
47429;SDS011;33181;49.246;7.372;2022-11-15T03:24:54;6.77;;;5.40;;
47429;SDS011;33181;49.246;7.372;2022-11-15T03:27:27;7.87;;;5.70;;
47429;SDS011;33181;49.246;7.372;2022-11-15T03:30:00;7.60;;;5.53;;
47429;SDS011;33181;49.246;7.372;2022-11-15T03:32:30;7.77;;;5.90;;
47429;SDS011;33181;49.246;7.372;2022-11-15T03:35:03;8.57;;;6.30;;
47429;SDS011;33181;49.246;7.372;2022-11-15T03:37:40;8.30;;;5.40;;
47429;SDS011;33181;49.246;7.372;2022-11-15T03:40:39;6.60;;;5.57;;
47429;SDS011;33181;49.246;7.372;2022-11-15T03:46:13;6.70;;;5.30;;
47429;SDS011;33181;49.246;7.372;2022-11-15T03:48:47;6.10;;;5.40;;
47429;SDS011;33181;49.246;7.372;2022-11-15T03:51:17;7.30;;;5.43;;
47429;SDS011;33181;49.246;7.372;2022-11-15T03:53:44;6.20;;;5.33;;
47429;SDS011;33181;49.246;7.372;2022-11-15T03:56:11;6.30;;;5.03;;
47429;SDS011;33181;49.246;7.372;2022-11-15T03:58:36;6.03;;;5.10;;
47429;SDS011;33181;49.246;7.372;2022-11-15T04:01:02;6.10;;;5.47;;
47429;SDS011;33181;49.246;7.372;2022-11-15T04:03:28;6.67;;;5.17;;
47429;SDS011;33181;49.246;7.372;2022-11-15T04:05:54;8.40;;;5.80;;
47429;SDS011;33181;49.246;7.372;2022-11-15T04:08:20;6.10;;;5.13;;
47429;SDS011;33181;49.246;7.372;2022-11-15T04:10:48;8.57;;;5.30;;
47429;SDS011;33181;49.246;7.372;2022-11-15T04:13:14;6.83;;;5.40;;
47429;SDS011;33181;49.246;7.372;2022-11-15T04:15:40;6.73;;;5.23;;
47429;SDS011;33181;49.246;7.372;2022-11-15T04:18:06;7.37;;;5.23;;
47429;SDS011;33181;49.246;7.372;2022-11-15T04:20:31;7.83;;;5.20;;
47429;SDS011;33181;49.246;7.372;2022-11-15T04:23:29;7.50;;;5.50;;
47429;SDS011;33181;49.246;7.372;2022-11-15T04:26:30;6.90;;;5.10;;
47429;SDS011;33181;49.246;7.372;2022-11-15T04:28:57;8.03;;;5.77;;
47429;SDS011;33181;49.246;7.372;2022-11-15T04:31:41;8.30;;;5.87;;
47429;SDS011;33181;49.246;7.372;2022-11-15T04:34:07;7.67;;;5.90;;
47429;SDS011;33181;49.246;7.372;2022-11-15T04:36:32;10.13;;;5.80;;
47429;SDS011;33181;49.246;7.372;2022-11-15T04:39:17;7.73;;;5.93;;
47429;SDS011;33181;49.246;7.372;2022-11-15T04:41:42;7.67;;;6.00;;
47429;SDS011;33181;49.246;7.372;2022-11-15T04:44:08;8.13;;;5.50;;
47429;SDS011;33181;49.246;7.372;2022-11-15T04:46:34;6.10;;;4.90;;
47429;SDS011;33181;49.246;7.372;2022-11-15T04:49:00;8.53;;;6.13;;
47429;SDS011;33181;49.246;7.372;2022-11-15T04:51:26;9.20;;;6.37;;
47429;SDS011;33181;49.246;7.372;2022-11-15T04:53:52;7.30;;;5.70;;
47429;SDS011;33181;49.246;7.372;2022-11-15T04:56:17;8.93;;;5.87;;
47429;SDS011;33181;49.246;7.372;2022-11-15T04:58:44;9.17;;;5.67;;
47429;SDS011;33181;49.246;7.372;2022-11-15T05:01:10;8.20;;;6.50;;
47429;SDS011;33181;49.246;7.372;2022-11-15T05:03:39;11.77;;;5.80;;
47429;SDS011;33181;49.246;7.372;2022-11-15T05:06:27;8.30;;;6.20;;
47429;SDS011;33181;49.246;7.372;2022-11-15T05:08:53;7.30;;;5.70;;
47429;SDS011;33181;49.246;7.372;2022-11-15T05:11:20;8.97;;;6.90;;
47429;SDS011;33181;49.246;7.372;2022-11-15T05:13:46;7.77;;;5.80;;
47429;SDS011;33181;49.246;7.372;2022-11-15T05:16:12;9.40;;;6.47;;
47429;SDS011;33181;49.246;7.372;2022-11-15T05:18:37;8.50;;;6.30;;
47429;SDS011;33181;49.246;7.372;2022-11-15T05:21:10;8.30;;;6.10;;
47429;SDS011;33181;49.246;7.372;2022-11-15T05:23:40;8.00;;;5.73;;
47429;SDS011;33181;49.246;7.372;2022-11-15T05:26:07;7.83;;;6.27;;
47429;SDS011;33181;49.246;7.372;2022-11-15T05:28:33;8.00;;;6.80;;
47429;SDS011;33181;49.246;7.372;2022-11-15T05:31:07;7.63;;;6.30;;
47429;SDS011;33181;49.246;7.372;2022-11-15T05:33:39;8.00;;;6.07;;
47429;SDS011;33181;49.246;7.372;2022-11-15T05:36:07;7.30;;;5.50;;
47429;SDS011;33181;49.246;7.372;2022-11-15T05:39:03;8.33;;;6.07;;
47429;SDS011;33181;49.246;7.372;2022-11-15T05:41:54;8.20;;;6.10;;
47429;SDS011;33181;49.246;7.372;2022-11-15T05:44:22;6.80;;;5.33;;
47429;SDS011;33181;49.246;7.372;2022-11-15T05:46:49;7.60;;;5.60;;
47429;SDS011;33181;49.246;7.372;2022-11-15T05:49:18;8.63;;;5.73;;
47429;SDS011;33181;49.246;7.372;2022-11-15T05:51:49;9.87;;;6.20;;
47429;SDS011;33181;49.246;7.372;2022-11-15T05:54:16;7.87;;;6.17;;
47429;SDS011;33181;49.246;7.372;2022-11-15T05:56:44;8.50;;;6.77;;
47429;SDS011;33181;49.246;7.372;2022-11-15T05:59:10;17.20;;;11.40;;
47429;SDS011;33181;49.246;7.372;2022-11-15T06:01:36;17.70;;;12.30;;
47429;SDS011;33181;49.246;7.372;2022-11-15T06:04:03;20.43;;;13.30;;
47429;SDS011;33181;49.246;7.372;2022-11-15T06:06:29;17.40;;;12.30;;
47429;SDS011;33181;49.246;7.372;2022-11-15T06:08:55;16.20;;;11.17;;
47429;SDS011;33181;49.246;7.372;2022-11-15T06:11:20;14.40;;;10.90;;
47429;SDS011;33181;49.246;7.372;2022-11-15T06:13:46;16.47;;;12.37;;
47429;SDS011;33181;49.246;7.372;2022-11-15T06:16:12;22.20;;;15.50;;
47429;SDS011;33181;49.246;7.372;2022-11-15T06:18:38;29.87;;;19.97;;
47429;SDS011;33181;49.246;7.372;2022-11-15T06:21:03;30.30;;;19.20;;
47429;SDS011;33181;49.246;7.372;2022-11-15T06:23:34;21.23;;;15.50;;
47429;SDS011;33181;49.246;7.372;2022-11-15T06:26:00;13.43;;;9.67;;
47429;SDS011;33181;49.246;7.372;2022-11-15T06:28:28;15.20;;;9.97;;
47429;SDS011;33181;49.246;7.372;2022-11-15T06:30:55;11.23;;;8.80;;
47429;SDS011;33181;49.246;7.372;2022-11-15T06:33:21;11.97;;;7.27;;
47429;SDS011;33181;49.246;7.372;2022-11-15T06:35:47;8.10;;;6.63;;
47429;SDS011;33181;49.246;7.372;2022-11-15T06:38:13;8.40;;;6.57;;
47429;SDS011;33181;49.246;7.372;2022-11-15T06:40:38;8.07;;;6.87;;
47429;SDS011;33181;49.246;7.372;2022-11-15T06:43:05;9.83;;;7.40;;
47429;SDS011;33181;49.246;7.372;2022-11-15T06:45:31;10.37;;;8.60;;
47429;SDS011;33181;49.246;7.372;2022-11-15T06:47:57;16.40;;;11.90;;
47429;SDS011;33181;49.246;7.372;2022-11-15T06:50:23;13.37;;;10.40;;
47429;SDS011;33181;49.246;7.372;2022-11-15T06:52:50;14.80;;;12.77;;
47429;SDS011;33181;49.246;7.372;2022-11-15T06:55:16;51.57;;;33.63;;
47429;SDS011;33181;49.246;7.372;2022-11-15T06:57:48;29.70;;;21.03;;
47429;SDS011;33181;49.246;7.372;2022-11-15T07:00:17;21.17;;;15.37;;
47429;SDS011;33181;49.246;7.372;2022-11-15T07:02:45;21.50;;;15.47;;
47429;SDS011;33181;49.246;7.372;2022-11-15T07:05:11;18.83;;;14.60;;
47429;SDS011;33181;49.246;7.372;2022-11-15T07:07:38;13.77;;;11.40;;
47429;SDS011;33181;49.246;7.372;2022-11-15T07:10:04;13.53;;;10.83;;
47429;SDS011;33181;49.246;7.372;2022-11-15T07:12:31;13.87;;;11.00;;
47429;SDS011;33181;49.246;7.372;2022-11-15T07:14:57;11.93;;;9.40;;
47429;SDS011;33181;49.246;7.372;2022-11-15T07:17:23;12.07;;;9.00;;
47429;SDS011;33181;49.246;7.372;2022-11-15T07:19:49;12.97;;;8.33;;
47429;SDS011;33181;49.246;7.372;2022-11-15T07:22:14;10.40;;;6.80;;
47429;SDS011;33181;49.246;7.372;2022-11-15T07:24:40;9.50;;;7.10;;
47429;SDS011;33181;49.246;7.372;2022-11-15T07:27:06;8.40;;;6.40;;
47429;SDS011;33181;49.246;7.372;2022-11-15T07:29:32;7.60;;;6.03;;
47429;SDS011;33181;49.246;7.372;2022-11-15T07:31:58;12.63;;;8.40;;
47429;SDS011;33181;49.246;7.372;2022-11-15T07:34:24;19.23;;;14.67;;
47429;SDS011;33181;49.246;7.372;2022-11-15T07:36:49;23.40;;;17.63;;
47429;SDS011;33181;49.246;7.372;2022-11-15T07:39:15;20.90;;;16.80;;
47429;SDS011;33181;49.246;7.372;2022-11-15T07:41:41;17.37;;;12.40;;
47429;SDS011;33181;49.246;7.372;2022-11-15T07:44:08;14.80;;;9.10;;
47429;SDS011;33181;49.246;7.372;2022-11-15T07:46:34;13.33;;;9.50;;
47429;SDS011;33181;49.246;7.372;2022-11-15T07:48:59;11.60;;;9.57;;
47429;SDS011;33181;49.246;7.372;2022-11-15T07:51:25;14.50;;;9.80;;
47429;SDS011;33181;49.246;7.372;2022-11-15T07:53:51;14.87;;;10.90;;
47429;SDS011;33181;49.246;7.372;2022-11-15T07:56:17;14.40;;;11.40;;
47429;SDS011;33181;49.246;7.372;2022-11-15T07:58:45;15.17;;;11.80;;
47429;SDS011;33181;49.246;7.372;2022-11-15T08:01:11;16.23;;;12.63;;
47429;SDS011;33181;49.246;7.372;2022-11-15T08:03:37;16.30;;;11.80;;
47429;SDS011;33181;49.246;7.372;2022-11-15T08:06:03;15.27;;;10.70;;
47429;SDS011;33181;49.246;7.372;2022-11-15T08:08:29;12.93;;;9.57;;
47429;SDS011;33181;49.246;7.372;2022-11-15T08:10:57;13.67;;;9.50;;
47429;SDS011;33181;49.246;7.372;2022-11-15T08:13:23;13.30;;;8.73;;
47429;SDS011;33181;49.246;7.372;2022-11-15T08:15:49;11.50;;;7.67;;
47429;SDS011;33181;49.246;7.372;2022-11-15T08:18:15;9.00;;;7.50;;
47429;SDS011;33181;49.246;7.372;2022-11-15T08:20:42;11.00;;;8.90;;
47429;SDS011;33181;49.246;7.372;2022-11-15T08:23:09;11.60;;;8.43;;
47429;SDS011;33181;49.246;7.372;2022-11-15T08:25:37;12.33;;;8.67;;
47429;SDS011;33181;49.246;7.372;2022-11-15T08:28:04;11.27;;;7.83;;
47429;SDS011;33181;49.246;7.372;2022-11-15T08:30:36;12.10;;;9.00;;
47429;SDS011;33181;49.246;7.372;2022-11-15T08:33:09;11.00;;;8.67;;
47429;SDS011;33181;49.246;7.372;2022-11-15T08:35:37;11.97;;;8.47;;
47429;SDS011;33181;49.246;7.372;2022-11-15T08:38:04;15.90;;;10.30;;
47429;SDS011;33181;49.246;7.372;2022-11-15T08:40:29;13.80;;;10.17;;
47429;SDS011;33181;49.246;7.372;2022-11-15T08:42:55;11.73;;;9.33;;
47429;SDS011;33181;49.246;7.372;2022-11-15T08:45:21;12.40;;;9.70;;
47429;SDS011;33181;49.246;7.372;2022-11-15T08:47:47;12.60;;;9.57;;
47429;SDS011;33181;49.246;7.372;2022-11-15T08:50:12;11.20;;;9.00;;
47429;SDS011;33181;49.246;7.372;2022-11-15T08:52:38;16.23;;;9.17;;
47429;SDS011;33181;49.246;7.372;2022-11-15T08:55:04;11.53;;;9.20;;
47429;SDS011;33181;49.246;7.372;2022-11-15T08:57:31;13.60;;;9.77;;
47429;SDS011;33181;49.246;7.372;2022-11-15T08:59:57;14.00;;;10.60;;
47429;SDS011;33181;49.246;7.372;2022-11-15T09:02:22;13.20;;;9.97;;
47429;SDS011;33181;49.246;7.372;2022-11-15T09:04:48;13.17;;;9.67;;
47429;SDS011;33181;49.246;7.372;2022-11-15T09:07:14;13.73;;;9.80;;
47429;SDS011;33181;49.246;7.372;2022-11-15T09:09:40;12.30;;;9.90;;
47429;SDS011;33181;49.246;7.372;2022-11-15T09:12:07;14.27;;;9.57;;
47429;SDS011;33181;49.246;7.372;2022-11-15T09:14:33;13.63;;;10.60;;
47429;SDS011;33181;49.246;7.372;2022-11-15T09:16:59;18.13;;;13.00;;
47429;SDS011;33181;49.246;7.372;2022-11-15T09:19:26;16.93;;;11.97;;
47429;SDS011;33181;49.246;7.372;2022-11-15T09:21:51;14.70;;;10.90;;
47429;SDS011;33181;49.246;7.372;2022-11-15T09:24:17;15.90;;;11.57;;
47429;SDS011;33181;49.246;7.372;2022-11-15T09:26:43;14.10;;;10.97;;
47429;SDS011;33181;49.246;7.372;2022-11-15T09:29:09;17.70;;;12.07;;
47429;SDS011;33181;49.246;7.372;2022-11-15T09:31:35;17.03;;;13.20;;
47429;SDS011;33181;49.246;7.372;2022-11-15T09:34:01;15.60;;;10.50;;
47429;SDS011;33181;49.246;7.372;2022-11-15T09:36:26;14.73;;;10.30;;
47429;SDS011;33181;49.246;7.372;2022-11-15T09:38:52;18.47;;;13.37;;
47429;SDS011;33181;49.246;7.372;2022-11-15T09:41:27;17.43;;;13.23;;
47429;SDS011;33181;49.246;7.372;2022-11-15T09:44:06;18.03;;;13.90;;
47429;SDS011;33181;49.246;7.372;2022-11-15T09:46:49;18.47;;;13.73;;
47429;SDS011;33181;49.246;7.372;2022-11-15T09:49:52;13.53;;;10.43;;
47429;SDS011;33181;49.246;7.372;2022-11-15T09:52:21;13.20;;;10.10;;
47429;SDS011;33181;49.246;7.372;2022-11-15T09:54:48;14.70;;;10.10;;
47429;SDS011;33181;49.246;7.372;2022-11-15T10:03:09;14.20;;;10.17;;
47429;SDS011;33181;49.246;7.372;2022-11-15T10:05:50;15.73;;;9.70;;
47429;SDS011;33181;49.246;7.372;2022-11-15T10:11:28;14.60;;;9.07;;
47429;SDS011;33181;49.246;7.372;2022-11-15T10:13:59;11.57;;;8.27;;
47429;SDS011;33181;49.246;7.372;2022-11-15T10:16:37;10.70;;;7.20;;
47429;SDS011;33181;49.246;7.372;2022-11-15T10:19:34;11.37;;;8.10;;
47429;SDS011;33181;49.246;7.372;2022-11-15T10:22:30;12.00;;;7.13;;
47429;SDS011;33181;49.246;7.372;2022-11-15T10:27:47;8.57;;;6.10;;
47429;SDS011;33181;49.246;7.372;2022-11-15T10:30:18;10.70;;;6.50;;
47429;SDS011;33181;49.246;7.372;2022-11-15T10:32:45;8.10;;;5.53;;
47429;SDS011;33181;49.246;7.372;2022-11-15T10:35:17;11.43;;;7.63;;
47429;SDS011;33181;49.246;7.372;2022-11-15T10:38:04;5.73;;;4.10;;
47429;SDS011;33181;49.246;7.372;2022-11-15T10:40:33;4.40;;;3.50;;
47429;SDS011;33181;49.246;7.372;2022-11-15T10:45:34;6.70;;;4.70;;
47429;SDS011;33181;49.246;7.372;2022-11-15T10:56:07;5.90;;;4.33;;
47429;SDS011;33181;49.246;7.372;2022-11-15T10:58:50;7.53;;;4.50;;
47429;SDS011;33181;49.246;7.372;2022-11-15T11:01:23;4.30;;;3.40;;
47429;SDS011;33181;49.246;7.372;2022-11-15T11:06:28;5.57;;;4.20;;
47429;SDS011;33181;49.246;7.372;2022-11-15T11:08:55;5.20;;;3.50;;
47429;SDS011;33181;49.246;7.372;2022-11-15T11:11:48;6.13;;;4.30;;
47429;SDS011;33181;49.246;7.372;2022-11-15T11:14:20;8.80;;;6.27;;
47429;SDS011;33181;49.246;7.372;2022-11-15T11:28:42;5.10;;;3.00;;
47429;SDS011;33181;49.246;7.372;2022-11-15T11:31:48;3.47;;;2.87;;
47429;SDS011;33181;49.246;7.372;2022-11-15T11:46:55;4.57;;;3.30;;
47429;SDS011;33181;49.246;7.372;2022-11-15T11:49:45;4.27;;;2.87;;
47429;SDS011;33181;49.246;7.372;2022-11-15T11:52:33;6.17;;;3.17;;
47429;SDS011;33181;49.246;7.372;2022-11-15T11:55:20;5.27;;;3.13;;
47429;SDS011;33181;49.246;7.372;2022-11-15T12:04:08;3.70;;;3.10;;
47429;SDS011;33181;49.246;7.372;2022-11-15T12:06:58;3.53;;;2.93;;
47429;SDS011;33181;49.246;7.372;2022-11-15T12:09:47;3.37;;;2.90;;
47429;SDS011;33181;49.246;7.372;2022-11-15T12:12:30;3.77;;;2.73;;
47429;SDS011;33181;49.246;7.372;2022-11-15T12:17:35;4.33;;;2.67;;
47429;SDS011;33181;49.246;7.372;2022-11-15T12:20:04;3.83;;;3.10;;
47429;SDS011;33181;49.246;7.372;2022-11-15T12:22:53;3.60;;;3.07;;
47429;SDS011;33181;49.246;7.372;2022-11-15T12:34:04;5.10;;;3.63;;
47429;SDS011;33181;49.246;7.372;2022-11-15T12:37:01;4.07;;;2.97;;
47429;SDS011;33181;49.246;7.372;2022-11-15T12:42:35;4.50;;;2.70;;
47429;SDS011;33181;49.246;7.372;2022-11-15T12:45:23;6.10;;;3.67;;
47429;SDS011;33181;49.246;7.372;2022-11-15T12:47:49;9.90;;;4.67;;
47429;SDS011;33181;49.246;7.372;2022-11-15T12:50:15;6.47;;;4.00;;
47429;SDS011;33181;49.246;7.372;2022-11-15T12:53:20;10.80;;;4.60;;
47429;SDS011;33181;49.246;7.372;2022-11-15T12:58:47;4.40;;;3.10;;
47429;SDS011;33181;49.246;7.372;2022-11-15T13:19:44;8.93;;;4.30;;
47429;SDS011;33181;49.246;7.372;2022-11-15T13:22:13;5.53;;;3.90;;
47429;SDS011;33181;49.246;7.372;2022-11-15T13:25:01;5.50;;;3.70;;
47429;SDS011;33181;49.246;7.372;2022-11-15T13:27:28;6.67;;;4.37;;
47429;SDS011;33181;49.246;7.372;2022-11-15T13:29:55;5.57;;;4.13;;
47429;SDS011;33181;49.246;7.372;2022-11-15T13:32:21;14.10;;;10.10;;
47429;SDS011;33181;49.246;7.372;2022-11-15T13:34:48;8.97;;;6.40;;
47429;SDS011;33181;49.246;7.372;2022-11-15T13:39:46;9.33;;;6.40;;
47429;SDS011;33181;49.246;7.372;2022-11-15T13:42:17;17.00;;;10.10;;
47429;SDS011;33181;49.246;7.372;2022-11-15T13:45:01;19.40;;;11.03;;
47429;SDS011;33181;49.246;7.372;2022-11-15T13:47:29;6.60;;;3.87;;
47429;SDS011;33181;49.246;7.372;2022-11-15T13:49:57;4.83;;;3.40;;
47429;SDS011;33181;49.246;7.372;2022-11-15T13:52:24;3.80;;;3.00;;
47429;SDS011;33181;49.246;7.372;2022-11-15T13:55:08;3.53;;;2.80;;
47429;SDS011;33181;49.246;7.372;2022-11-15T13:57:42;4.93;;;3.30;;
47429;SDS011;33181;49.246;7.372;2022-11-15T14:00:33;3.60;;;2.83;;
47429;SDS011;33181;49.246;7.372;2022-11-15T14:03:06;3.57;;;2.93;;
47429;SDS011;33181;49.246;7.372;2022-11-15T14:06:06;4.97;;;3.70;;
47429;SDS011;33181;49.246;7.372;2022-11-15T14:11:34;5.90;;;4.30;;
47429;SDS011;33181;49.246;7.372;2022-11-15T14:16:58;6.03;;;4.00;;
47429;SDS011;33181;49.246;7.372;2022-11-15T14:24:41;10.33;;;3.17;;
47429;SDS011;33181;49.246;7.372;2022-11-15T14:29:53;5.10;;;3.20;;
47429;SDS011;33181;49.246;7.372;2022-11-15T14:35:00;4.13;;;2.77;;
47429;SDS011;33181;49.246;7.372;2022-11-15T14:37:28;5.77;;;3.77;;
47429;SDS011;33181;49.246;7.372;2022-11-15T14:40:00;3.93;;;2.73;;
47429;SDS011;33181;49.246;7.372;2022-11-15T14:42:28;3.90;;;2.70;;
47429;SDS011;33181;49.246;7.372;2022-11-15T14:44:54;5.00;;;3.43;;
47429;SDS011;33181;49.246;7.372;2022-11-15T14:47:19;5.03;;;3.30;;
47429;SDS011;33181;49.246;7.372;2022-11-15T14:49:45;4.40;;;3.00;;
47429;SDS011;33181;49.246;7.372;2022-11-15T14:52:22;4.10;;;3.40;;
47429;SDS011;33181;49.246;7.372;2022-11-15T14:54:52;5.03;;;3.13;;
47429;SDS011;33181;49.246;7.372;2022-11-15T14:57:19;4.73;;;4.00;;
47429;SDS011;33181;49.246;7.372;2022-11-15T14:59:45;5.10;;;3.10;;
47429;SDS011;33181;49.246;7.372;2022-11-15T15:02:16;3.77;;;2.83;;
47429;SDS011;33181;49.246;7.372;2022-11-15T15:04:51;5.27;;;2.90;;
47429;SDS011;33181;49.246;7.372;2022-11-15T15:07:17;4.07;;;2.80;;
47429;SDS011;33181;49.246;7.372;2022-11-15T15:09:44;4.07;;;2.70;;
47429;SDS011;33181;49.246;7.372;2022-11-15T15:12:17;3.37;;;2.67;;
47429;SDS011;33181;49.246;7.372;2022-11-15T15:14:48;4.53;;;3.13;;
47429;SDS011;33181;49.246;7.372;2022-11-15T15:17:16;5.37;;;3.40;;
47429;SDS011;33181;49.246;7.372;2022-11-15T15:19:42;5.30;;;2.93;;
47429;SDS011;33181;49.246;7.372;2022-11-15T15:22:10;3.93;;;2.97;;
47429;SDS011;33181;49.246;7.372;2022-11-15T15:24:44;5.50;;;3.10;;
47429;SDS011;33181;49.246;7.372;2022-11-15T15:27:11;3.40;;;2.63;;
47429;SDS011;33181;49.246;7.372;2022-11-15T15:29:37;3.80;;;2.80;;
47429;SDS011;33181;49.246;7.372;2022-11-15T15:32:04;4.00;;;3.20;;
47429;SDS011;33181;49.246;7.372;2022-11-15T15:34:30;4.83;;;3.23;;
47429;SDS011;33181;49.246;7.372;2022-11-15T15:37:06;6.67;;;3.90;;
47429;SDS011;33181;49.246;7.372;2022-11-15T15:39:54;4.43;;;3.60;;
47429;SDS011;33181;49.246;7.372;2022-11-15T15:42:21;5.50;;;3.30;;
47429;SDS011;33181;49.246;7.372;2022-11-15T15:44:51;6.70;;;3.27;;
47429;SDS011;33181;49.246;7.372;2022-11-15T15:47:18;5.07;;;3.27;;
47429;SDS011;33181;49.246;7.372;2022-11-15T15:49:48;5.97;;;4.53;;
47429;SDS011;33181;49.246;7.372;2022-11-15T15:52:15;5.90;;;3.27;;
47429;SDS011;33181;49.246;7.372;2022-11-15T15:54:41;4.90;;;4.20;;
47429;SDS011;33181;49.246;7.372;2022-11-15T15:57:08;11.30;;;7.97;;
47429;SDS011;33181;49.246;7.372;2022-11-15T15:59:37;8.80;;;6.50;;
47429;SDS011;33181;49.246;7.372;2022-11-15T16:02:03;7.97;;;5.10;;
47429;SDS011;33181;49.246;7.372;2022-11-15T16:04:29;8.73;;;4.73;;
47429;SDS011;33181;49.246;7.372;2022-11-15T16:06:58;4.00;;;3.03;;
47429;SDS011;33181;49.246;7.372;2022-11-15T16:09:27;5.30;;;4.03;;
47429;SDS011;33181;49.246;7.372;2022-11-15T16:12:12;10.30;;;7.17;;
47429;SDS011;33181;49.246;7.372;2022-11-15T16:14:37;9.53;;;5.83;;
47429;SDS011;33181;49.246;7.372;2022-11-15T16:17:03;6.67;;;5.80;;
47429;SDS011;33181;49.246;7.372;2022-11-15T16:19:29;10.87;;;8.77;;
47429;SDS011;33181;49.246;7.372;2022-11-15T16:21:54;8.03;;;7.20;;
47429;SDS011;33181;49.246;7.372;2022-11-15T16:24:20;7.93;;;6.30;;
47429;SDS011;33181;49.246;7.372;2022-11-15T16:26:47;8.00;;;6.17;;
47429;SDS011;33181;49.246;7.372;2022-11-15T16:29:15;9.10;;;6.20;;
47429;SDS011;33181;49.246;7.372;2022-11-15T16:31:41;5.90;;;5.00;;
47429;SDS011;33181;49.246;7.372;2022-11-15T16:34:06;6.10;;;4.40;;
47429;SDS011;33181;49.246;7.372;2022-11-15T16:36:33;6.20;;;4.73;;
47429;SDS011;33181;49.246;7.372;2022-11-15T16:39:00;12.23;;;4.67;;
47429;SDS011;33181;49.246;7.372;2022-11-15T16:41:29;4.40;;;3.83;;
47429;SDS011;33181;49.246;7.372;2022-11-15T16:43:55;4.67;;;3.53;;
47429;SDS011;33181;49.246;7.372;2022-11-15T16:46:22;6.67;;;4.30;;
47429;SDS011;33181;49.246;7.372;2022-11-15T16:48:52;6.27;;;4.43;;
47429;SDS011;33181;49.246;7.372;2022-11-15T16:51:18;5.47;;;3.87;;
47429;SDS011;33181;49.246;7.372;2022-11-15T16:53:46;5.37;;;3.30;;
47429;SDS011;33181;49.246;7.372;2022-11-15T16:58:47;5.90;;;4.13;;
47429;SDS011;33181;49.246;7.372;2022-11-15T17:01:15;5.07;;;4.17;;
47429;SDS011;33181;49.246;7.372;2022-11-15T17:03:46;5.63;;;3.83;;
47429;SDS011;33181;49.246;7.372;2022-11-15T17:06:12;5.40;;;3.80;;
47429;SDS011;33181;49.246;7.372;2022-11-15T17:08:39;4.90;;;4.20;;
47429;SDS011;33181;49.246;7.372;2022-11-15T17:11:05;4.17;;;3.40;;
47429;SDS011;33181;49.246;7.372;2022-11-15T17:13:35;5.30;;;4.00;;
47429;SDS011;33181;49.246;7.372;2022-11-15T17:16:10;7.03;;;4.97;;
47429;SDS011;33181;49.246;7.372;2022-11-15T17:18:38;6.00;;;3.90;;
47429;SDS011;33181;49.246;7.372;2022-11-15T17:21:10;5.83;;;4.57;;
47429;SDS011;33181;49.246;7.372;2022-11-15T17:23:39;6.73;;;4.70;;
47429;SDS011;33181;49.246;7.372;2022-11-15T17:26:05;7.83;;;5.77;;